createdAt,value
2023-03-18T00:00:01.375Z,100823.97
2023-03-18T00:10:22.846Z,100817.91
2023-03-18T00:20:45.264Z,100827.94
2023-03-18T00:31:09.032Z,100829.34
2023-03-18T00:41:33.051Z,100849.13
2023-03-18T00:51:54.392Z,100845.00
2023-03-18T01:02:15.908Z,100831.72
2023-03-18T01:12:38.334Z,100833.75
2023-03-18T01:23:01.346Z,100840.75
2023-03-18T01:33:23.362Z,100855.72
2023-03-18T01:43:44.795Z,100852.47
2023-03-18T01:54:07.745Z,100851.59
2023-03-18T02:04:31.927Z,100839.53
2023-03-18T02:14:53.691Z,100836.88
2023-03-18T02:25:27.100Z,100830.72
2023-03-18T02:35:51.896Z,100828.91
2023-03-18T02:46:34.197Z,100850.41
2023-03-18T02:56:55.718Z,100853.78
2023-03-18T03:07:17.446Z,100866.72
2023-03-18T03:17:39.534Z,100867.78
2023-03-18T03:28:01.098Z,100877.44
2023-03-18T03:38:23.064Z,100888.06
2023-03-18T03:48:44.826Z,100896.00
2023-03-18T03:59:06.248Z,100903.13
2023-03-18T04:09:27.652Z,100911.19
2023-03-18T04:19:49.508Z,100917.50
2023-03-18T04:30:11.528Z,100918.22
2023-03-18T04:40:33.225Z,100935.91
2023-03-18T04:50:54.932Z,100943.75
2023-03-18T05:01:16.361Z,100943.75
2023-03-18T05:11:38.183Z,100937.03
2023-03-18T05:22:00.210Z,100950.97
2023-03-18T05:32:21.670Z,100957.03
2023-03-18T05:42:55.495Z,100968.44
2023-03-18T05:53:18.202Z,100976.09
2023-03-18T06:03:41.056Z,100979.72
2023-03-18T06:14:04.675Z,100989.09
2023-03-18T06:24:26.377Z,101004.66
2023-03-18T06:34:47.774Z,101018.50
2023-03-18T06:45:10.010Z,101028.25
2023-03-18T06:55:31.883Z,101045.03
2023-03-18T07:05:54.314Z,101041.75
2023-03-18T07:16:15.889Z,101054.03
2023-03-18T07:26:37.503Z,101067.78
2023-03-18T07:36:58.962Z,101079.75
2023-03-18T07:47:20.937Z,101096.81
2023-03-18T07:57:42.927Z,101101.06
2023-03-18T08:08:05.292Z,101112.03
2023-03-18T08:18:27.239Z,101127.41
2023-03-18T08:28:48.822Z,101128.72
2023-03-18T08:39:11.139Z,101156.00
2023-03-18T08:49:33.202Z,101165.38
2023-03-18T08:59:54.624Z,101154.75
2023-03-18T09:10:17.708Z,101143.31
2023-03-18T09:20:40.191Z,101140.41
2023-03-18T09:31:01.866Z,101149.19
2023-03-18T09:41:48.219Z,101166.41
2023-03-18T09:52:22.347Z,101176.50
2023-03-18T10:02:55.589Z,101189.94
2023-03-18T10:13:17.373Z,101187.75
2023-03-18T10:23:44.953Z,101192.97
2023-03-18T10:34:06.630Z,101202.91
2023-03-18T10:44:34.179Z,101217.03
2023-03-18T10:54:55.553Z,101216.28
2023-03-18T11:05:23.092Z,101209.63
2023-03-18T11:15:50.078Z,101209.28
2023-03-18T11:26:17.955Z,101218.34
2023-03-18T11:36:39.317Z,101223.25
2023-03-18T11:47:06.878Z,101215.13
2023-03-18T11:57:47.088Z,101216.28
2023-03-18T12:08:14.874Z,101219.84
2023-03-18T12:18:56.326Z,101230.63
2023-03-18T12:29:30.520Z,101216.56
2023-03-18T12:39:59.495Z,101213.91
2023-03-18T12:50:26.846Z,101205.72
2023-03-18T13:00:59.486Z,101196.47
2023-03-18T13:11:36.315Z,101209.22
2023-03-18T13:22:09.929Z,101187.09
2023-03-18T13:32:49.774Z,101185.25
2023-03-18T13:43:15.858Z,101174.41
2023-03-18T13:53:42.037Z,101176.56
2023-03-18T14:04:15.852Z,101172.78
2023-03-18T14:14:56.945Z,101166.31
2023-03-18T14:25:18.348Z,101170.66
2023-03-18T14:35:48.946Z,101169.44
2023-03-18T14:46:18.924Z,101166.19
2023-03-18T14:56:41.668Z,101164.56
2023-03-18T15:07:07.198Z,101160.16
2023-03-18T15:17:28.643Z,101160.50
2023-03-18T15:27:50.087Z,101145.19
2023-03-18T15:38:19.278Z,101143.69
2023-03-18T15:48:43.697Z,101151.59
2023-03-18T15:59:07.123Z,101145.72
2023-03-18T16:09:28.653Z,101151.81
2023-03-18T16:19:54.336Z,101159.03
2023-03-18T16:30:20.473Z,101163.78
2023-03-18T16:40:42.403Z,101173.50
2023-03-18T16:51:04.551Z,101181.03
2023-03-18T17:01:27.986Z,101183.94
2023-03-18T17:11:49.818Z,101197.53
2023-03-18T17:22:19.792Z,101200.69
2023-03-18T17:32:41.173Z,101192.81
2023-03-18T17:43:02.650Z,101208.31
2023-03-18T17:53:24.170Z,101205.88
2023-03-18T18:03:45.653Z,101222.91
2023-03-18T18:14:22.246Z,101227.84
2023-03-18T18:24:46.009Z,101228.09
2023-03-18T18:35:07.762Z,101229.09
2023-03-18T18:45:29.308Z,101236.38
2023-03-18T18:56:01.197Z,101230.44
2023-03-18T19:06:31.174Z,101231.47
2023-03-18T19:16:53.814Z,101221.25
2023-03-18T19:27:26.592Z,101238.25
2023-03-18T19:37:48.360Z,101245.69
2023-03-18T19:48:14.848Z,101248.06
2023-03-18T19:58:36.628Z,101272.00
2023-03-18T20:08:58.409Z,101282.75
2023-03-18T20:19:20.700Z,101290.91
2023-03-18T20:29:42.318Z,101292.72
2023-03-18T20:40:04.746Z,101299.56
2023-03-18T20:50:30.745Z,101294.09
2023-03-18T21:00:52.999Z,101295.69
2023-03-18T21:11:19.763Z,101300.16
2023-03-18T21:21:41.392Z,101297.88
2023-03-18T21:32:03.098Z,101300.19
2023-03-18T21:42:26.160Z,101295.75
2023-03-18T21:52:47.803Z,101292.84
2023-03-18T22:03:15.813Z,101291.56
2023-03-18T22:13:37.501Z,101297.25
2023-03-18T22:24:00.259Z,101282.13
2023-03-18T22:34:23.087Z,101286.03
2023-03-18T22:44:44.533Z,101288.84
2023-03-18T22:55:14.987Z,101288.44
2023-03-18T23:05:36.362Z,101274.28
2023-03-18T23:15:58.319Z,101277.19
2023-03-18T23:26:20.365Z,101262.06
2023-03-18T23:36:42.422Z,101266.00
2023-03-18T23:47:04.134Z,101269.69
2023-03-18T23:57:25.633Z,101274.06
